sensor_id;sensor_type;location;lat;lon;timestamp;pressure;altitude;pressure_sealevel;temperature;humidity
62150;BME280;48134;53.586;10.610;2023-11-19T00:02:07;100367.47;;;3.30;100.00
62150;BME280;48134;53.586;10.610;2023-11-19T00:04:36;100361.84;;;3.32;100.00
62150;BME280;48134;53.586;10.610;2023-11-19T00:07:05;100340.06;;;3.33;100.00
62150;BME280;48134;53.586;10.610;2023-11-19T00:09:34;100334.94;;;3.32;100.00
62150;BME280;48134;53.586;10.610;2023-11-19T00:12:04;100332.81;;;3.34;100.00
62150;BME280;48134;53.586;10.610;2023-11-19T00:14:32;100313.44;;;3.32;100.00
62150;BME280;48134;53.586;10.610;2023-11-19T00:17:06;100318.56;;;3.33;100.00
62150;BME280;48134;53.586;10.610;2023-11-19T00:19:39;100319.97;;;3.36;100.00
62150;BME280;48134;53.586;10.610;2023-11-19T00:22:13;100306.75;;;3.34;100.00
62150;BME280;48134;53.586;10.610;2023-11-19T00:24:41;100300.63;;;3.39;100.00
62150;BME280;48134;53.586;10.610;2023-11-19T00:27:09;100282.84;;;3.38;100.00
62150;BME280;48134;53.586;10.610;2023-11-19T00:29:43;100270.47;;;3.37;100.00
62150;BME280;48134;53.586;10.610;2023-11-19T00:32:16;100273.63;;;3.34;100.00
62150;BME280;48134;53.586;10.610;2023-11-19T00:34:50;100280.50;;;3.42;100.00
62150;BME280;48134;53.586;10.610;2023-11-19T00:37:20;100268.47;;;3.44;100.00
62150;BME280;48134;53.586;10.610;2023-11-19T00:39:47;100263.53;;;3.41;100.00
62150;BME280;48134;53.586;10.610;2023-11-19T00:42:15;100246.94;;;3.44;100.00
62150;BME280;48134;53.586;10.610;2023-11-19T00:44:44;100244.00;;;3.46;100.00
62150;BME280;48134;53.586;10.610;2023-11-19T00:47:12;100230.84;;;3.49;100.00
62150;BME280;48134;53.586;10.610;2023-11-19T00:49:45;100220.34;;;3.48;100.00
62150;BME280;48134;53.586;10.610;2023-11-19T00:52:19;100226.81;;;3.47;100.00
62150;BME280;48134;53.586;10.610;2023-11-19T00:54:48;100218.94;;;3.45;100.00
62150;BME280;48134;53.586;10.610;2023-11-19T00:57:17;100219.53;;;3.47;100.00
62150;BME280;48134;53.586;10.610;2023-11-19T00:59:50;100216.84;;;3.47;100.00
62150;BME280;48134;53.586;10.610;2023-11-19T01:02:18;100205.09;;;3.53;100.00
62150;BME280;48134;53.586;10.610;2023-11-19T01:04:46;100190.50;;;3.49;100.00
62150;BME280;48134;53.586;10.610;2023-11-19T01:07:14;100184.06;;;3.50;100.00
62150;BME280;48134;53.586;10.610;2023-11-19T01:09:49;100183.25;;;3.50;100.00
62150;BME280;48134;53.586;10.610;2023-11-19T01:12:17;100175.69;;;3.47;100.00
62150;BME280;48134;53.586;10.610;2023-11-19T01:14:45;100157.16;;;3.50;100.00
62150;BME280;48134;53.586;10.610;2023-11-19T01:17:13;100147.97;;;3.46;100.00
62150;BME280;48134;53.586;10.610;2023-11-19T01:19:46;100147.16;;;3.46;100.00
62150;BME280;48134;53.586;10.610;2023-11-19T01:22:14;100145.25;;;3.46;100.00
62150;BME280;48134;53.586;10.610;2023-11-19T01:24:49;100144.22;;;3.47;100.00
62150;BME280;48134;53.586;10.610;2023-11-19T01:27:18;100132.88;;;3.45;100.00
62150;BME280;48134;53.586;10.610;2023-11-19T01:29:51;100120.25;;;3.46;100.00
62150;BME280;48134;53.586;10.610;2023-11-19T01:32:19;100106.06;;;3.50;100.00
62150;BME280;48134;53.586;10.610;2023-11-19T01:34:52;100103.28;;;3.45;100.00
62150;BME280;48134;53.586;10.610;2023-11-19T01:37:20;100100.38;;;3.47;100.00
62150;BME280;48134;53.586;10.610;2023-11-19T01:39:49;100089.66;;;3.52;100.00
62150;BME280;48134;53.586;10.610;2023-11-19T01:42:17;100083.81;;;3.55;100.00
62150;BME280;48134;53.586;10.610;2023-11-19T01:44:54;100081.34;;;3.53;100.00
62150;BME280;48134;53.586;10.610;2023-11-19T01:47:22;100082.16;;;3.54;100.00
62150;BME280;48134;53.586;10.610;2023-11-19T01:49:51;100065.78;;;3.55;100.00
62150;BME280;48134;53.586;10.610;2023-11-19T01:52:24;100063.25;;;3.49;100.00
62150;BME280;48134;53.586;10.610;2023-11-19T01:54:54;100046.13;;;3.55;100.00
62150;BME280;48134;53.586;10.610;2023-11-19T01:57:27;100048.31;;;3.58;100.00
62150;BME280;48134;53.586;10.610;2023-11-19T02:00:00;100036.97;;;3.56;100.00
62150;BME280;48134;53.586;10.610;2023-11-19T02:02:39;100041.31;;;3.57;100.00
62150;BME280;48134;53.586;10.610;2023-11-19T02:05:07;100036.72;;;3.57;100.00
62150;BME280;48134;53.586;10.610;2023-11-19T02:07:40;100023.06;;;3.59;100.00
62150;BME280;48134;53.586;10.610;2023-11-19T02:10:14;100021.41;;;3.58;100.00
62150;BME280;48134;53.586;10.610;2023-11-19T02:12:43;100014.16;;;3.58;100.00
62150;BME280;48134;53.586;10.610;2023-11-19T02:15:11;100011.22;;;3.60;100.00
62150;BME280;48134;53.586;10.610;2023-11-19T02:17:44;100002.06;;;3.61;100.00
62150;BME280;48134;53.586;10.610;2023-11-19T02:20:17;100007.72;;;3.60;100.00
62150;BME280;48134;53.586;10.610;2023-11-19T02:22:47;100004.25;;;3.64;100.00
62150;BME280;48134;53.586;10.610;2023-11-19T02:25:20;100003.47;;;3.64;100.00
62150;BME280;48134;53.586;10.610;2023-11-19T02:27:52;99992.69;;;3.64;100.00
62150;BME280;48134;53.586;10.610;2023-11-19T02:30:28;99986.25;;;3.65;100.00
62150;BME280;48134;53.586;10.610;2023-11-19T02:32:56;99980.13;;;3.69;100.00
62150;BME280;48134;53.586;10.610;2023-11-19T02:35:30;99976.84;;;3.67;100.00
62150;BME280;48134;53.586;10.610;2023-11-19T02:38:04;99959.03;;;3.61;100.00
62150;BME280;48134;53.586;10.610;2023-11-19T02:40:33;99954.00;;;3.70;100.00
62150;BME280;48134;53.586;10.610;2023-11-19T02:43:02;99942.38;;;3.64;100.00
62150;BME280;48134;53.586;10.610;2023-11-19T02:45:36;99930.28;;;3.67;100.00
62150;BME280;48134;53.586;10.610;2023-11-19T02:48:05;99931.59;;;3.64;100.00
62150;BME280;48134;53.586;10.610;2023-11-19T02:50:33;99919.78;;;3.65;100.00
62150;BME280;48134;53.586;10.610;2023-11-19T02:53:02;99914.94;;;3.67;100.00
62150;BME280;48134;53.586;10.610;2023-11-19T02:55:30;99899.63;;;3.68;100.00
62150;BME280;48134;53.586;10.610;2023-11-19T02:58:04;99894.81;;;3.70;100.00
62150;BME280;48134;53.586;10.610;2023-11-19T03:00:43;99883.50;;;3.68;100.00
62150;BME280;48134;53.586;10.610;2023-11-19T03:03:18;99878.66;;;3.70;100.00
62150;BME280;48134;53.586;10.610;2023-11-19T03:05:49;99874.13;;;3.75;100.00
62150;BME280;48134;53.586;10.610;2023-11-19T03:08:17;99866.56;;;3.72;100.00
62150;BME280;48134;53.586;10.610;2023-11-19T03:10:45;99863.94;;;3.78;100.00
62150;BME280;48134;53.586;10.610;2023-11-19T03:13:14;99861.50;;;3.76;100.00
62150;BME280;48134;53.586;10.610;2023-11-19T03:15:48;99863.94;;;3.78;100.00
62150;BME280;48134;53.586;10.610;2023-11-19T03:18:21;99855.06;;;3.77;100.00
62150;BME280;48134;53.586;10.610;2023-11-19T03:20:49;99855.88;;;3.78;100.00
62150;BME280;48134;53.586;10.610;2023-11-19T03:23:17;99850.22;;;3.79;100.00
62150;BME280;48134;53.586;10.610;2023-11-19T03:25:45;99849.44;;;3.79;100.00
62150;BME280;48134;53.586;10.610;2023-11-19T03:28:14;99837.03;;;3.78;100.00
62150;BME280;48134;53.586;10.610;2023-11-19T03:30:47;99843.00;;;3.85;100.00
62150;BME280;48134;53.586;10.610;2023-11-19T03:33:15;99841.91;;;3.81;100.00
62150;BME280;48134;53.586;10.610;2023-11-19T03:35:48;99834.34;;;3.78;100.00
62150;BME280;48134;53.586;10.610;2023-11-19T03:38:18;99834.38;;;3.83;100.00
62150;BME280;48134;53.586;10.610;2023-11-19T03:40:51;99829.56;;;3.85;100.00
62150;BME280;48134;53.586;10.610;2023-11-19T03:43:25;99818.84;;;3.90;100.00
62150;BME280;48134;53.586;10.610;2023-11-19T03:45:53;99804.81;;;3.88;100.00
62150;BME280;48134;53.586;10.610;2023-11-19T03:48:26;99800.31;;;3.94;100.00
62150;BME280;48134;53.586;10.610;2023-11-19T03:50:54;99788.44;;;3.89;100.00
62150;BME280;48134;53.586;10.610;2023-11-19T03:53:22;99799.19;;;3.89;100.00
62150;BME280;48134;53.586;10.610;2023-11-19T03:55:56;99786.78;;;3.88;100.00
62150;BME280;48134;53.586;10.610;2023-11-19T03:58:25;99787.34;;;3.90;100.00
62150;BME280;48134;53.586;10.610;2023-11-19T04:00:53;99783.88;;;3.95;100.00
62150;BME280;48134;53.586;10.610;2023-11-19T04:03:21;99773.66;;;3.97;100.00
62150;BME280;48134;53.586;10.610;2023-11-19T04:05:54;99785.28;;;4.03;100.00
62150;BME280;48134;53.586;10.610;2023-11-19T04:08:22;99780.69;;;3.98;100.00
62150;BME280;48134;53.586;10.610;2023-11-19T04:10:50;99774.47;;;3.98;100.00
62150;BME280;48134;53.586;10.610;2023-11-19T04:13:23;99771.81;;;4.03;100.00
62150;BME280;48134;53.586;10.610;2023-11-19T04:15:58;99765.63;;;4.02;100.00
62150;BME280;48134;53.586;10.610;2023-11-19T04:18:25;99755.66;;;4.03;100.00
62150;BME280;48134;53.586;10.610;2023-11-19T04:20:58;99744.09;;;4.02;100.00
62150;BME280;48134;53.586;10.610;2023-11-19T04:23:32;99756.75;;;4.07;100.00
62150;BME280;48134;53.586;10.610;2023-11-19T04:26:01;99718.78;;;4.03;100.00
62150;BME280;48134;53.586;10.610;2023-11-19T04:28:30;99736.31;;;4.11;100.00
62150;BME280;48134;53.586;10.610;2023-11-19T04:30:59;99753.31;;;4.17;100.00
62150;BME280;48134;53.586;10.610;2023-11-19T04:33:27;99745.50;;;4.15;100.00
62150;BME280;48134;53.586;10.610;2023-11-19T04:35:55;99742.28;;;4.18;100.00
62150;BME280;48134;53.586;10.610;2023-11-19T04:38:23;99722.09;;;4.16;100.00
62150;BME280;48134;53.586;10.610;2023-11-19T04:40:58;99720.50;;;4.25;100.00
62150;BME280;48134;53.586;10.610;2023-11-19T04:43:31;99700.06;;;4.24;100.00
62150;BME280;48134;53.586;10.610;2023-11-19T04:46:01;99685.50;;;4.25;100.00
62150;BME280;48134;53.586;10.610;2023-11-19T04:48:30;99725.66;;;4.32;100.00
62150;BME280;48134;53.586;10.610;2023-11-19T04:50:58;99709.53;;;4.37;100.00
62150;BME280;48134;53.586;10.610;2023-11-19T04:53:31;99689.31;;;4.34;100.00
62150;BME280;48134;53.586;10.610;2023-11-19T04:56:07;99713.34;;;4.41;100.00
62150;BME280;48134;53.586;10.610;2023-11-19T04:58:40;99706.88;;;4.42;100.00
62150;BME280;48134;53.586;10.610;2023-11-19T05:01:15;99694.75;;;4.39;100.00
62150;BME280;48134;53.586;10.610;2023-11-19T05:03:44;99687.75;;;4.43;100.00
62150;BME280;48134;53.586;10.610;2023-11-19T05:06:17;99657.28;;;4.43;100.00
62150;BME280;48134;53.586;10.610;2023-11-19T05:08:45;99679.94;;;4.47;100.00
62150;BME280;48134;53.586;10.610;2023-11-19T05:11:13;99688.31;;;4.51;100.00
62150;BME280;48134;53.586;10.610;2023-11-19T05:13:44;99690.78;;;4.68;100.00
62150;BME280;48134;53.586;10.610;2023-11-19T05:16:12;99682.97;;;4.66;100.00
62150;BME280;48134;53.586;10.610;2023-11-19T05:18:48;99665.19;;;4.65;100.00
62150;BME280;48134;53.586;10.610;2023-11-19T05:21:21;99646.31;;;4.65;100.00
62150;BME280;48134;53.586;10.610;2023-11-19T05:23:50;99657.34;;;4.64;100.00
62150;BME280;48134;53.586;10.610;2023-11-19T05:26:18;99666.00;;;4.71;100.00
62150;BME280;48134;53.586;10.610;2023-11-19T05:28:52;99664.66;;;4.73;100.00
62150;BME280;48134;53.586;10.610;2023-11-19T05:31:25;99663.31;;;4.76;100.00
62150;BME280;48134;53.586;10.610;2023-11-19T05:33:59;99653.59;;;4.75;100.00
62150;BME280;48134;53.586;10.610;2023-11-19T05:36:27;99656.88;;;4.77;100.00
62150;BME280;48134;53.586;10.610;2023-11-19T05:38:56;99649.59;;;4.83;100.00
62150;BME280;48134;53.586;10.610;2023-11-19T05:41:24;99649.88;;;4.86;100.00
62150;BME280;48134;53.586;10.610;2023-11-19T05:43:52;99644.47;;;4.91;100.00
62150;BME280;48134;53.586;10.610;2023-11-19T05:46:20;99638.28;;;5.01;100.00
62150;BME280;48134;53.586;10.610;2023-11-19T05:48:48;99640.19;;;5.11;100.00
62150;BME280;48134;53.586;10.610;2023-11-19T05:51:17;99632.66;;;5.23;100.00
62150;BME280;48134;53.586;10.610;2023-11-19T05:53:50;99628.06;;;5.29;100.00
62150;BME280;48134;53.586;10.610;2023-11-19T05:56:18;99625.34;;;5.34;100.00
62150;BME280;48134;53.586;10.610;2023-11-19T05:58:48;99622.63;;;5.34;100.00
62150;BME280;48134;53.586;10.610;2023-11-19T06:01:16;99622.91;;;5.38;100.00
62150;BME280;48134;53.586;10.610;2023-11-19T06:03:49;99626.41;;;5.38;100.00
62150;BME280;48134;53.586;10.610;2023-11-19T06:06:18;99623.44;;;5.40;100.00
62150;BME280;48134;53.586;10.610;2023-11-19T06:08:51;99629.91;;;5.44;100.00
62150;BME280;48134;53.586;10.610;2023-11-19T06:11:20;99636.94;;;5.50;100.00
62150;BME280;48134;53.586;10.610;2023-11-19T06:13:52;99625.88;;;5.52;100.00
62150;BME280;48134;53.586;10.610;2023-11-19T06:16:21;99632.34;;;5.56;100.00
62150;BME280;48134;53.586;10.610;2023-11-19T06:18:48;99623.72;;;5.54;100.00
62150;BME280;48134;53.586;10.610;2023-11-19T06:21:16;99617.22;;;5.55;100.00
62150;BME280;48134;53.586;10.610;2023-11-19T06:23:46;99626.94;;;5.61;100.00
62150;BME280;48134;53.586;10.610;2023-11-19T06:26:14;99638.81;;;5.65;100.00
62150;BME280;48134;53.586;10.610;2023-11-19T06:28:42;99626.66;;;5.68;100.00
62150;BME280;48134;53.586;10.610;2023-11-19T06:31:14;99625.03;;;5.72;100.00
62150;BME280;48134;53.586;10.610;2023-11-19T06:33:43;99626.13;;;5.76;100.00
62150;BME280;48134;53.586;10.610;2023-11-19T06:36:16;99625.00;;;5.82;100.00
62150;BME280;48134;53.586;10.610;2023-11-19T06:38:45;99627.69;;;5.87;100.00
62150;BME280;48134;53.586;10.610;2023-11-19T06:41:18;99617.13;;;5.96;100.00
62150;BME280;48134;53.586;10.610;2023-11-19T06:43:46;99619.31;;;5.99;100.00
62150;BME280;48134;53.586;10.610;2023-11-19T06:46:14;99629.59;;;6.02;100.00
62150;BME280;48134;53.586;10.610;2023-11-19T06:48:47;99626.59;;;6.04;100.00
62150;BME280;48134;53.586;10.610;2023-11-19T06:51:20;99629.53;;;6.07;100.00
62150;BME280;48134;53.586;10.610;2023-11-19T06:53:49;99628.75;;;6.07;100.00
62150;BME280;48134;53.586;10.610;2023-11-19T06:56:18;99621.13;;;6.19;100.00
62150;BME280;48134;53.586;10.610;2023-11-19T06:58:51;99621.41;;;6.18;100.00
62150;BME280;48134;53.586;10.610;2023-11-19T07:01:25;99629.47;;;6.28;100.00
62150;BME280;48134;53.586;10.610;2023-11-19T07:03:53;99625.97;;;6.27;100.00
62150;BME280;48134;53.586;10.610;2023-11-19T07:06:24;99618.94;;;6.26;100.00
62150;BME280;48134;53.586;10.610;2023-11-19T07:08:54;99615.16;;;6.27;100.00
62150;BME280;48134;53.586;10.610;2023-11-19T07:11:22;99620.25;;;6.34;100.00
62150;BME280;48134;53.586;10.610;2023-11-19T07:13:50;99612.38;;;6.43;100.00
62150;BME280;48134;53.586;10.610;2023-11-19T07:16:18;99607.44;;;6.55;100.00
62150;BME280;48134;53.586;10.610;2023-11-19T07:18:48;99626.84;;;6.68;100.00
62150;BME280;48134;53.586;10.610;2023-11-19T07:21:16;99619.00;;;6.66;100.00
62150;BME280;48134;53.586;10.610;2023-11-19T07:23:49;99619.44;;;6.84;100.00
62150;BME280;48134;53.586;10.610;2023-11-19T07:26:19;99622.41;;;6.82;100.00
62150;BME280;48134;53.586;10.610;2023-11-19T07:28:53;99619.28;;;7.04;100.00
62150;BME280;48134;53.586;10.610;2023-11-19T07:31:22;99622.22;;;7.13;100.00
62150;BME280;48134;53.586;10.610;2023-11-19T07:33:50;99610.81;;;7.16;100.00
62150;BME280;48134;53.586;10.610;2023-11-19T07:36:18;99603.75;;;7.20;100.00
62150;BME280;48134;53.586;10.610;2023-11-19T07:38:51;99604.94;;;7.38;100.00
62150;BME280;48134;53.586;10.610;2023-11-19T07:41:21;99607.31;;;7.45;100.00
62150;BME280;48134;53.586;10.610;2023-11-19T07:43:48;99611.03;;;7.54;100.00
62150;BME280;48134;53.586;10.610;2023-11-19T07:46:23;99606.56;;;7.63;100.00
62150;BME280;48134;53.586;10.610;2023-11-19T07:48:51;99602.16;;;7.73;100.00
62150;BME280;48134;53.586;10.610;2023-11-19T07:51:19;99604.88;;;7.97;100.00
62150;BME280;48134;53.586;10.610;2023-11-19T07:53:48;99607.16;;;8.09;100.00
62150;BME280;48134;53.586;10.610;2023-11-19T07:56:22;99615.53;;;8.12;100.00
62150;BME280;48134;53.586;10.610;2023-11-19T07:58:50;99612.47;;;8.19;100.00
62150;BME280;48134;53.586;10.610;2023-11-19T08:01:18;99616.22;;;8.42;100.00
62150;BME280;48134;53.586;10.610;2023-11-19T08:03:51;99616.06;;;8.58;100.00
62150;BME280;48134;53.586;10.610;2023-11-19T08:06:19;99613.06;;;8.59;100.00
62150;BME280;48134;53.586;10.610;2023-11-19T08:08:52;99604.34;;;8.81;100.00
62150;BME280;48134;53.586;10.610;2023-11-19T08:11:20;99609.97;;;8.85;100.00
62150;BME280;48134;53.586;10.610;2023-11-19T08:13:54;99608.88;;;8.86;100.00
62150;BME280;48134;53.586;10.610;2023-11-19T08:16:22;99620.09;;;8.98;100.00
62150;BME280;48134;53.586;10.610;2023-11-19T08:18:55;99622.06;;;8.93;100.00
62150;BME280;48134;53.586;10.610;2023-11-19T08:21:25;99618.16;;;8.99;100.00
62150;BME280;48134;53.586;10.610;2023-11-19T08:23:53;99619.25;;;9.17;100.00
62150;BME280;48134;53.586;10.610;2023-11-19T08:26:21;99619.47;;;9.21;100.00
62150;BME280;48134;53.586;10.610;2023-11-19T08:28:55;99619.88;;;9.28;100.00
62150;BME280;48134;53.586;10.610;2023-11-19T08:31:24;99619.31;;;9.31;100.00
62150;BME280;48134;53.586;10.610;2023-11-19T08:33:57;99628.66;;;9.39;100.00
62150;BME280;48134;53.586;10.610;2023-11-19T08:36:25;99629.97;;;9.41;100.00
62150;BME280;48134;53.586;10.610;2023-11-19T08:38:54;99630.19;;;9.45;100.00
62150;BME280;48134;53.586;10.610;2023-11-19T08:41:27;99632.31;;;9.48;100.00
62150;BME280;48134;53.586;10.610;2023-11-19T08:44:01;99631.53;;;9.47;100.00
62150;BME280;48134;53.586;10.610;2023-11-19T08:46:29;99633.03;;;9.53;100.00
62150;BME280;48134;53.586;10.610;2023-11-19T08:48:57;99644.69;;;9.54;100.00
62150;BME280;48134;53.586;10.610;2023-11-19T08:51:24;99653.97;;;9.53;100.00
62150;BME280;48134;53.586;10.610;2023-11-19T08:53:53;99646.91;;;9.52;100.00
62150;BME280;48134;53.586;10.610;2023-11-19T08:56:25;99650.34;;;9.58;100.00
62150;BME280;48134;53.586;10.610;2023-11-19T08:59:05;99658.41;;;9.63;100.00
62150;BME280;48134;53.586;10.610;2023-11-19T09:01:33;99640.28;;;9.58;100.00
62150;BME280;48134;53.586;10.610;2023-11-19T09:04:00;99649.44;;;9.62;100.00
62150;BME280;48134;53.586;10.610;2023-11-19T09:06:28;99651.59;;;9.65;100.00
62150;BME280;48134;53.586;10.610;2023-11-19T09:08:56;99655.69;;;9.63;100.00
62150;BME280;48134;53.586;10.610;2023-11-19T09:11:30;99655.00;;;9.71;100.00
62150;BME280;48134;53.586;10.610;2023-11-19T09:14:03;99640.97;;;9.64;100.00
62150;BME280;48134;53.586;10.610;2023-11-19T09:16:37;99651.78;;;9.69;100.00
62150;BME280;48134;53.586;10.610;2023-11-19T09:19:05;99661.47;;;9.75;100.00
62150;BME280;48134;53.586;10.610;2023-11-19T09:21:35;99660.06;;;9.78;100.00
62150;BME280;48134;53.586;10.610;2023-11-19T09:24:05;99662.16;;;9.81;100.00
62150;BME280;48134;53.586;10.610;2023-11-19T09:26:34;99676.94;;;9.75;100.00
62150;BME280;48134;53.586;10.610;2023-11-19T09:29:02;99659.63;;;9.84;100.00
62150;BME280;48134;53.586;10.610;2023-11-19T09:31:30;99659.38;;;9.86;100.00
62150;BME280;48134;53.586;10.610;2023-11-19T09:34:05;99664.28;;;9.84;100.00
62150;BME280;48134;53.586;10.610;2023-11-19T09:36:33;99672.75;;;9.96;100.00
62150;BME280;48134;53.586;10.610;2023-11-19T09:39:06;99664.50;;;10.01;100.00
62150;BME280;48134;53.586;10.610;2023-11-19T09:41:35;99665.22;;;10.07;100.00
62150;BME280;48134;53.586;10.610;2023-11-19T09:44:03;99668.53;;;10.18;100.00
62150;BME280;48134;53.586;10.610;2023-11-19T09:46:36;99673.16;;;10.17;100.00
62150;BME280;48134;53.586;10.610;2023-11-19T09:49:10;99675.16;;;10.12;100.00
62150;BME280;48134;53.586;10.610;2023-11-19T09:51:39;99674.56;;;10.15;100.00
62150;BME280;48134;53.586;10.610;2023-11-19T09:54:07;99673.47;;;10.16;100.00
62150;BME280;48134;53.586;10.610;2023-11-19T09:56:41;99678.72;;;10.12;100.00
62150;BME280;48134;53.586;10.610;2023-11-19T09:59:09;99679.91;;;10.20;100.00
62150;BME280;48134;53.586;10.610;2023-11-19T10:01:37;99686.75;;;10.17;100.00
62150;BME280;48134;53.586;10.610;2023-11-19T10:04:12;99685.16;;;10.30;100.00
62150;BME280;48134;53.586;10.610;2023-11-19T10:06:47;99677.44;;;10.37;100.00
62150;BME280;48134;53.586;10.610;2023-11-19T10:09:16;99673.78;;;10.42;100.00
62150;BME280;48134;53.586;10.610;2023-11-19T10:11:45;99685.28;;;10.39;100.00
62150;BME280;48134;53.586;10.610;2023-11-19T10:14:19;99671.19;;;10.51;100.00
62150;BME280;48134;53.586;10.610;2023-11-19T10:16:54;99677.91;;;10.53;100.00
62150;BME280;48134;53.586;10.610;2023-11-19T10:19:23;99678.53;;;10.50;100.00
62150;BME280;48134;53.586;10.610;2023-11-19T10:21:51;99675.81;;;10.50;100.00
62150;BME280;48134;53.586;10.610;2023-11-19T10:24:28;99675.00;;;10.50;100.00
62150;BME280;48134;53.586;10.610;2023-11-19T10:26:59;99673.91;;;10.51;100.00
62150;BME280;48134;53.586;10.610;2023-11-19T10:29:27;99670.97;;;10.61;100.00
62150;BME280;48134;53.586;10.610;2023-11-19T10:32:01;99670.25;;;10.55;100.00
62150;BME280;48134;53.586;10.610;2023-11-19T10:34:31;99678.53;;;10.50;100.00
62150;BME280;48134;53.586;10.610;2023-11-19T10:37:04;99681.63;;;10.58;100.00
62150;BME280;48134;53.586;10.610;2023-11-19T10:39:53;99673.56;;;10.66;100.00
62150;BME280;48134;53.586;10.610;2023-11-19T10:42:26;99675.28;;;10.62;100.00
62150;BME280;48134;53.586;10.610;2023-11-19T10:44:54;99666.41;;;10.70;100.00
62150;BME280;48134;53.586;10.610;2023-11-19T10:47:22;99672.16;;;10.69;100.00
62150;BME280;48134;53.586;10.610;2023-11-19T10:49:52;99668.31;;;10.70;100.00
62150;BME280;48134;53.586;10.610;2023-11-19T10:52:20;99680.13;;;10.65;100.00
62150;BME280;48134;53.586;10.610;2023-11-19T10:54:52;99682.22;;;10.68;100.00
62150;BME280;48134;53.586;10.610;2023-11-19T10:57:29;99688.50;;;10.69;100.00
62150;BME280;48134;53.586;10.610;2023-11-19T11:00:04;99695.06;;;10.54;100.00
62150;BME280;48134;53.586;10.610;2023-11-19T11:02:42;99687.59;;;10.46;100.00
62150;BME280;48134;53.586;10.610;2023-11-19T11:05:14;99690.63;;;10.44;100.00
62150;BME280;48134;53.586;10.610;2023-11-19T11:07:42;99688.78;;;10.26;100.00
62150;BME280;48134;53.586;10.610;2023-11-19T11:10:16;99689.06;;;10.24;100.00
62150;BME280;48134;53.586;10.610;2023-11-19T11:12:44;99686.06;;;10.26;100.00
62150;BME280;48134;53.586;10.610;2023-11-19T11:15:13;99691.09;;;10.18;100.00
62150;BME280;48134;53.586;10.610;2023-11-19T11:17:42;99681.53;;;10.21;100.00
62150;BME280;48134;53.586;10.610;2023-11-19T11:20:17;99690.38;;;10.13;100.00
62150;BME280;48134;53.586;10.610;2023-11-19T11:22:53;99694.72;;;10.14;100.00
62150;BME280;48134;53.586;10.610;2023-11-19T11:25:28;99699.47;;;10.22;100.00
62150;BME280;48134;53.586;10.610;2023-11-19T11:28:15;99699.16;;;10.24;100.00
62150;BME280;48134;53.586;10.610;2023-11-19T11:30:46;99693.19;;;10.21;100.00
62150;BME280;48134;53.586;10.610;2023-11-19T11:33:32;99698.94;;;10.20;100.00
62150;BME280;48134;53.586;10.610;2023-11-19T11:36:13;99696.84;;;10.17;100.00
62150;BME280;48134;53.586;10.610;2023-11-19T11:38:45;99702.75;;;10.19;100.00
62150;BME280;48134;53.586;10.610;2023-11-19T11:41:16;99700.25;;;10.23;100.00
62150;BME280;48134;53.586;10.610;2023-11-19T11:43:51;99698.34;;;10.23;100.00
62150;BME280;48134;53.586;10.610;2023-11-19T11:49:10;99698.94;;;10.34;100.00
62150;BME280;48134;53.586;10.610;2023-11-19T11:54:31;99701.66;;;10.20;100.00
62150;BME280;48134;53.586;10.610;2023-11-19T11:57:03;99708.03;;;10.29;100.00
62150;BME280;48134;53.586;10.610;2023-11-19T11:59:36;99703.31;;;10.35;100.00
62150;BME280;48134;53.586;10.610;2023-11-19T12:02:10;99704.72;;;10.60;100.00
62150;BME280;48134;53.586;10.610;2023-11-19T12:04:46;99705.94;;;10.54;100.00
62150;BME280;48134;53.586;10.610;2023-11-19T12:07:21;99702.00;;;10.60;100.00
62150;BME280;48134;53.586;10.610;2023-11-19T12:09:52;99705.94;;;10.54;100.00
62150;BME280;48134;53.586;10.610;2023-11-19T12:12:22;99709.84;;;10.62;100.00
62150;BME280;48134;53.586;10.610;2023-11-19T12:15:03;99696.06;;;10.58;100.00
62150;BME280;48134;53.586;10.610;2023-11-19T12:17:41;99697.88;;;10.49;100.00
62150;BME280;48134;53.586;10.610;2023-11-19T12:20:16;99703.81;;;10.51;100.00
62150;BME280;48134;53.586;10.610;2023-11-19T12:22:44;99699.88;;;10.43;100.00
62150;BME280;48134;53.586;10.610;2023-11-19T12:25:15;99702.09;;;10.41;100.00
62150;BME280;48134;53.586;10.610;2023-11-19T12:27:49;99704.78;;;10.27;100.00
62150;BME280;48134;53.586;10.610;2023-11-19T12:30:17;99697.44;;;10.28;100.00
62150;BME280;48134;53.586;10.610;2023-11-19T12:32:49;99699.25;;;10.32;100.00
62150;BME280;48134;53.586;10.610;2023-11-19T12:35:17;99699.94;;;10.24;100.00
62150;BME280;48134;53.586;10.610;2023-11-19T12:37:50;99694.03;;;10.22;100.00
62150;BME280;48134;53.586;10.610;2023-11-19T12:40:25;99692.00;;;10.28;100.00
62150;BME280;48134;53.586;10.610;2023-11-19T12:43:00;99692.00;;;10.28;100.00
62150;BME280;48134;53.586;10.610;2023-11-19T12:45:34;99694.03;;;10.22;100.00
62150;BME280;48134;53.586;10.610;2023-11-19T12:48:05;99691.78;;;10.24;100.00
62150;BME280;48134;53.586;10.610;2023-11-19T12:50:52;99696.84;;;10.17;100.00
62150;BME280;48134;53.586;10.610;2023-11-19T12:53:20;99694.03;;;10.08;100.00
62150;BME280;48134;53.586;10.610;2023-11-19T12:55:50;99693.09;;;10.13;100.00
62150;BME280;48134;53.586;10.610;2023-11-19T12:58:28;99690.09;;;10.14;100.00
62150;BME280;48134;53.586;10.610;2023-11-19T13:01:02;99691.31;;;10.08;100.00
62150;BME280;48134;53.586;10.610;2023-11-19T13:03:30;99692.72;;;10.19;100.00
62150;BME280;48134;53.586;10.610;2023-11-19T13:06:02;99692.91;;;10.23;100.00
62150;BME280;48134;53.586;10.610;2023-11-19T13:08:36;99694.22;;;10.26;100.00
62150;BME280;48134;53.586;10.610;2023-11-19T13:11:06;99685.25;;;10.25;100.00